sensor_id;sensor_type;location;lat;lon;timestamp;P1;durP1;ratioP1;P2;durP2;ratioP2
32032;SDS011;31720;52.638;9.216;2024-03-23T00:53:14;13.82;;;3.03;;
32032;SDS011;31720;52.638;9.216;2024-03-23T00:56:16;15.80;;;2.80;;
32032;SDS011;31720;52.638;9.216;2024-03-23T00:59:16;15.45;;;2.47;;
32032;SDS011;31720;52.638;9.216;2024-03-23T01:02:17;14.10;;;2.50;;
32032;SDS011;31720;52.638;9.216;2024-03-23T01:05:19;16.95;;;2.67;;
32032;SDS011;31720;52.638;9.216;2024-03-23T01:08:20;12.00;;;2.65;;
32032;SDS011;31720;52.638;9.216;2024-03-23T01:11:22;28.38;;;4.43;;
32032;SDS011;31720;52.638;9.216;2024-03-23T01:14:23;22.13;;;2.90;;
32032;SDS011;31720;52.638;9.216;2024-03-23T01:17:23;10.98;;;2.90;;
32032;SDS011;31720;52.638;9.216;2024-03-23T01:20:25;20.73;;;2.70;;
32032;SDS011;31720;52.638;9.216;2024-03-23T01:23:27;8.93;;;2.97;;
32032;SDS011;31720;52.638;9.216;2024-03-23T01:26:28;19.67;;;2.65;;
32032;SDS011;31720;52.638;9.216;2024-03-23T01:29:29;7.25;;;2.60;;
32032;SDS011;31720;52.638;9.216;2024-03-23T01:32:31;27.67;;;3.63;;
32032;SDS011;31720;52.638;9.216;2024-03-23T01:35:32;13.05;;;2.55;;
32032;SDS011;31720;52.638;9.216;2024-03-23T01:38:34;14.80;;;3.17;;
32032;SDS011;31720;52.638;9.216;2024-03-23T01:41:36;15.48;;;3.15;;
32032;SDS011;31720;52.638;9.216;2024-03-23T01:44:37;12.52;;;2.97;;
32032;SDS011;31720;52.638;9.216;2024-03-23T01:47:38;16.65;;;4.45;;
32032;SDS011;31720;52.638;9.216;2024-03-23T01:50:39;13.85;;;3.47;;
32032;SDS011;31720;52.638;9.216;2024-03-23T01:53:42;14.18;;;3.15;;
32032;SDS011;31720;52.638;9.216;2024-03-23T01:56:42;12.38;;;3.25;;
32032;SDS011;31720;52.638;9.216;2024-03-23T01:59:43;15.52;;;3.72;;
32032;SDS011;31720;52.638;9.216;2024-03-23T02:02:44;8.63;;;3.15;;
32032;SDS011;31720;52.638;9.216;2024-03-23T02:05:46;13.57;;;4.13;;
32032;SDS011;31720;52.638;9.216;2024-03-23T02:08:47;13.55;;;3.28;;
32032;SDS011;31720;52.638;9.216;2024-03-23T02:11:49;10.45;;;2.92;;
32032;SDS011;31720;52.638;9.216;2024-03-23T02:14:50;17.60;;;3.53;;
32032;SDS011;31720;52.638;9.216;2024-03-23T02:17:51;17.30;;;3.55;;
32032;SDS011;31720;52.638;9.216;2024-03-23T02:20:51;18.25;;;3.95;;
32032;SDS011;31720;52.638;9.216;2024-03-23T02:23:54;21.70;;;4.03;;
32032;SDS011;31720;52.638;9.216;2024-03-23T02:26:54;15.88;;;3.50;;
32032;SDS011;31720;52.638;9.216;2024-03-23T02:29:56;17.65;;;3.38;;
32032;SDS011;31720;52.638;9.216;2024-03-23T02:32:57;17.30;;;3.10;;
32032;SDS011;31720;52.638;9.216;2024-03-23T02:35:57;21.05;;;3.45;;
32032;SDS011;31720;52.638;9.216;2024-03-23T02:39:00;13.35;;;3.78;;
32032;SDS011;31720;52.638;9.216;2024-03-23T02:42:01;18.35;;;3.60;;
32032;SDS011;31720;52.638;9.216;2024-03-23T02:45:02;15.88;;;3.05;;
32032;SDS011;31720;52.638;9.216;2024-03-23T02:48:05;18.83;;;3.60;;
32032;SDS011;31720;52.638;9.216;2024-03-23T02:51:06;18.17;;;3.67;;
32032;SDS011;31720;52.638;9.216;2024-03-23T02:54:08;16.45;;;3.97;;
32032;SDS011;31720;52.638;9.216;2024-03-23T02:57:10;15.10;;;3.05;;
32032;SDS011;31720;52.638;9.216;2024-03-23T03:00:10;13.48;;;3.22;;
32032;SDS011;31720;52.638;9.216;2024-03-23T03:03:12;25.90;;;4.00;;
32032;SDS011;31720;52.638;9.216;2024-03-23T03:06:22;12.00;;;3.30;;
32032;SDS011;31720;52.638;9.216;2024-03-23T03:12:26;12.05;;;3.45;;
32032;SDS011;31720;52.638;9.216;2024-03-23T03:15:27;10.32;;;2.85;;
32032;SDS011;31720;52.638;9.216;2024-03-23T03:18:28;15.20;;;3.28;;
32032;SDS011;31720;52.638;9.216;2024-03-23T03:21:28;12.70;;;3.28;;
32032;SDS011;31720;52.638;9.216;2024-03-23T03:24:31;16.48;;;4.40;;
32032;SDS011;31720;52.638;9.216;2024-03-23T03:27:33;18.38;;;3.42;;
32032;SDS011;31720;52.638;9.216;2024-03-23T03:30:34;15.15;;;3.28;;
32032;SDS011;31720;52.638;9.216;2024-03-23T03:33:35;18.63;;;3.60;;
32032;SDS011;31720;52.638;9.216;2024-03-23T03:36:36;16.48;;;2.70;;
32032;SDS011;31720;52.638;9.216;2024-03-23T03:39:38;12.90;;;3.13;;
32032;SDS011;31720;52.638;9.216;2024-03-23T03:42:39;17.40;;;3.22;;
32032;SDS011;31720;52.638;9.216;2024-03-23T03:45:40;17.17;;;2.45;;
32032;SDS011;31720;52.638;9.216;2024-03-23T03:48:40;10.40;;;2.58;;
32032;SDS011;31720;52.638;9.216;2024-03-23T03:51:42;14.30;;;3.53;;
32032;SDS011;31720;52.638;9.216;2024-03-23T03:54:43;24.40;;;5.05;;
32032;SDS011;31720;52.638;9.216;2024-03-23T03:57:45;22.42;;;2.90;;
32032;SDS011;31720;52.638;9.216;2024-03-23T04:00:45;12.85;;;2.55;;
32032;SDS011;31720;52.638;9.216;2024-03-23T04:03:46;12.60;;;3.22;;
32032;SDS011;31720;52.638;9.216;2024-03-23T04:06:47;16.08;;;3.00;;
32032;SDS011;31720;52.638;9.216;2024-03-23T04:09:50;8.45;;;2.40;;
32032;SDS011;31720;52.638;9.216;2024-03-23T04:12:50;17.98;;;2.95;;
32032;SDS011;31720;52.638;9.216;2024-03-23T04:15:53;18.15;;;3.53;;
32032;SDS011;31720;52.638;9.216;2024-03-23T04:18:55;13.93;;;2.60;;
32032;SDS011;31720;52.638;9.216;2024-03-23T04:21:55;11.82;;;2.60;;
32032;SDS011;31720;52.638;9.216;2024-03-23T04:24:58;11.43;;;2.85;;
32032;SDS011;31720;52.638;9.216;2024-03-23T04:27:58;18.20;;;3.65;;
32032;SDS011;31720;52.638;9.216;2024-03-23T04:31:03;20.67;;;3.05;;
32032;SDS011;31720;52.638;9.216;2024-03-23T04:34:03;14.63;;;3.10;;
32032;SDS011;31720;52.638;9.216;2024-03-23T04:37:05;6.55;;;2.20;;
32032;SDS011;31720;52.638;9.216;2024-03-23T04:40:08;15.73;;;3.05;;
32032;SDS011;31720;52.638;9.216;2024-03-23T04:43:11;15.20;;;3.28;;
32032;SDS011;31720;52.638;9.216;2024-03-23T04:46:12;13.98;;;2.63;;
32032;SDS011;31720;52.638;9.216;2024-03-23T04:49:13;20.30;;;3.20;;
32032;SDS011;31720;52.638;9.216;2024-03-23T04:52:15;16.35;;;3.13;;
32032;SDS011;31720;52.638;9.216;2024-03-23T04:55:18;14.20;;;3.10;;
32032;SDS011;31720;52.638;9.216;2024-03-23T04:58:20;12.15;;;2.83;;
32032;SDS011;31720;52.638;9.216;2024-03-23T05:01:20;13.23;;;2.70;;
32032;SDS011;31720;52.638;9.216;2024-03-23T05:04:22;9.27;;;2.50;;
32032;SDS011;31720;52.638;9.216;2024-03-23T05:07:22;26.20;;;4.35;;
32032;SDS011;31720;52.638;9.216;2024-03-23T05:10:25;16.60;;;3.55;;
32032;SDS011;31720;52.638;9.216;2024-03-23T05:13:25;13.48;;;3.70;;
32032;SDS011;31720;52.638;9.216;2024-03-23T05:16:27;16.77;;;3.80;;
32032;SDS011;31720;52.638;9.216;2024-03-23T05:19:28;20.90;;;3.60;;
32032;SDS011;31720;52.638;9.216;2024-03-23T05:22:29;16.05;;;3.78;;
32032;SDS011;31720;52.638;9.216;2024-03-23T05:25:32;20.08;;;4.53;;
32032;SDS011;31720;52.638;9.216;2024-03-23T05:28:32;13.52;;;3.53;;
32032;SDS011;31720;52.638;9.216;2024-03-23T05:31:34;22.67;;;4.10;;
32032;SDS011;31720;52.638;9.216;2024-03-23T05:34:35;18.38;;;4.38;;
32032;SDS011;31720;52.638;9.216;2024-03-23T05:37:35;15.05;;;5.72;;
32032;SDS011;31720;52.638;9.216;2024-03-23T05:40:38;17.25;;;3.58;;
32032;SDS011;31720;52.638;9.216;2024-03-23T05:43:40;17.50;;;4.35;;
32032;SDS011;31720;52.638;9.216;2024-03-23T05:46:41;21.35;;;3.70;;
32032;SDS011;31720;52.638;9.216;2024-03-23T05:49:42;17.80;;;3.50;;
32032;SDS011;31720;52.638;9.216;2024-03-23T05:52:43;19.45;;;4.07;;
32032;SDS011;31720;52.638;9.216;2024-03-23T05:55:45;16.42;;;4.85;;
32032;SDS011;31720;52.638;9.216;2024-03-23T05:58:47;14.45;;;3.78;;
32032;SDS011;31720;52.638;9.216;2024-03-23T06:01:48;16.92;;;4.07;;
32032;SDS011;31720;52.638;9.216;2024-03-23T06:04:50;24.27;;;4.70;;
32032;SDS011;31720;52.638;9.216;2024-03-23T06:07:51;36.08;;;5.88;;
32032;SDS011;31720;52.638;9.216;2024-03-23T06:10:53;20.58;;;3.60;;
32032;SDS011;31720;52.638;9.216;2024-03-23T06:13:55;21.83;;;3.95;;
32032;SDS011;31720;52.638;9.216;2024-03-23T06:16:55;25.83;;;5.57;;
32032;SDS011;31720;52.638;9.216;2024-03-23T06:19:57;15.98;;;3.42;;
32032;SDS011;31720;52.638;9.216;2024-03-23T06:22:57;33.70;;;3.90;;
32032;SDS011;31720;52.638;9.216;2024-03-23T06:26:00;31.30;;;3.70;;
32032;SDS011;31720;52.638;9.216;2024-03-23T06:29:00;11.98;;;3.80;;
32032;SDS011;31720;52.638;9.216;2024-03-23T06:32:02;20.42;;;4.35;;
32032;SDS011;31720;52.638;9.216;2024-03-23T06:35:03;16.50;;;3.42;;
32032;SDS011;31720;52.638;9.216;2024-03-23T06:38:09;23.98;;;4.13;;
32032;SDS011;31720;52.638;9.216;2024-03-23T06:41:12;14.18;;;3.65;;
32032;SDS011;31720;52.638;9.216;2024-03-23T06:44:12;15.60;;;4.13;;
32032;SDS011;31720;52.638;9.216;2024-03-23T06:47:13;10.38;;;3.28;;
32032;SDS011;31720;52.638;9.216;2024-03-23T06:50:14;20.67;;;3.63;;
32032;SDS011;31720;52.638;9.216;2024-03-23T06:53:15;20.52;;;3.42;;
32032;SDS011;31720;52.638;9.216;2024-03-23T06:56:17;36.47;;;5.93;;
32032;SDS011;31720;52.638;9.216;2024-03-23T06:59:18;29.45;;;4.22;;
32032;SDS011;31720;52.638;9.216;2024-03-23T07:02:20;18.27;;;4.03;;
32032;SDS011;31720;52.638;9.216;2024-03-23T07:05:20;21.08;;;3.58;;
32032;SDS011;31720;52.638;9.216;2024-03-23T07:08:21;17.58;;;3.95;;
32032;SDS011;31720;52.638;9.216;2024-03-23T07:11:23;17.67;;;3.42;;
32032;SDS011;31720;52.638;9.216;2024-03-23T07:14:25;21.30;;;4.95;;
32032;SDS011;31720;52.638;9.216;2024-03-23T07:17:26;19.73;;;4.18;;
32032;SDS011;31720;52.638;9.216;2024-03-23T07:20:28;23.20;;;4.50;;
32032;SDS011;31720;52.638;9.216;2024-03-23T07:23:30;23.33;;;4.57;;
32032;SDS011;31720;52.638;9.216;2024-03-23T07:26:32;22.58;;;4.47;;
32032;SDS011;31720;52.638;9.216;2024-03-23T07:29:33;18.52;;;4.10;;
32032;SDS011;31720;52.638;9.216;2024-03-23T07:32:34;18.80;;;4.70;;
32032;SDS011;31720;52.638;9.216;2024-03-23T07:35:35;23.08;;;4.35;;
32032;SDS011;31720;52.638;9.216;2024-03-23T07:38:37;21.02;;;4.95;;
32032;SDS011;31720;52.638;9.216;2024-03-23T07:41:39;24.38;;;4.85;;
32032;SDS011;31720;52.638;9.216;2024-03-23T07:44:40;33.65;;;6.93;;
32032;SDS011;31720;52.638;9.216;2024-03-23T07:47:41;17.80;;;6.80;;
32032;SDS011;31720;52.638;9.216;2024-03-23T07:50:42;29.40;;;8.20;;
32032;SDS011;31720;52.638;9.216;2024-03-23T07:53:43;27.20;;;8.98;;
32032;SDS011;31720;52.638;9.216;2024-03-23T07:56:46;20.13;;;7.22;;
32032;SDS011;31720;52.638;9.216;2024-03-23T07:59:47;19.65;;;5.50;;
32032;SDS011;31720;52.638;9.216;2024-03-23T08:02:47;28.38;;;6.25;;
32032;SDS011;31720;52.638;9.216;2024-03-23T08:05:52;12.80;;;4.63;;
32032;SDS011;31720;52.638;9.216;2024-03-23T08:08:54;20.13;;;5.22;;
32032;SDS011;31720;52.638;9.216;2024-03-23T08:12:01;20.65;;;4.60;;
32032;SDS011;31720;52.638;9.216;2024-03-23T08:15:03;18.52;;;4.65;;
32032;SDS011;31720;52.638;9.216;2024-03-23T08:18:04;8.98;;;3.25;;
32032;SDS011;31720;52.638;9.216;2024-03-23T08:21:05;22.95;;;3.58;;
32032;SDS011;31720;52.638;9.216;2024-03-23T08:24:06;17.85;;;3.35;;
32032;SDS011;31720;52.638;9.216;2024-03-23T08:27:09;17.58;;;3.92;;
32032;SDS011;31720;52.638;9.216;2024-03-23T08:30:10;17.00;;;3.75;;
32032;SDS011;31720;52.638;9.216;2024-03-23T08:33:12;22.08;;;3.72;;
32032;SDS011;31720;52.638;9.216;2024-03-23T08:36:13;15.63;;;3.58;;
32032;SDS011;31720;52.638;9.216;2024-03-23T08:39:14;25.70;;;4.13;;
32032;SDS011;31720;52.638;9.216;2024-03-23T08:42:17;26.20;;;3.45;;
32032;SDS011;31720;52.638;9.216;2024-03-23T08:45:18;22.55;;;3.95;;
32032;SDS011;31720;52.638;9.216;2024-03-23T08:48:18;11.23;;;3.08;;
32032;SDS011;31720;52.638;9.216;2024-03-23T08:51:21;15.77;;;3.10;;
32032;SDS011;31720;52.638;9.216;2024-03-23T08:54:22;16.65;;;3.13;;
32032;SDS011;31720;52.638;9.216;2024-03-23T08:57:24;22.27;;;2.92;;
32032;SDS011;31720;52.638;9.216;2024-03-23T09:00:26;12.55;;;3.03;;
32032;SDS011;31720;52.638;9.216;2024-03-23T09:03:26;17.58;;;3.15;;
32032;SDS011;31720;52.638;9.216;2024-03-23T09:06:27;15.82;;;2.70;;
32032;SDS011;31720;52.638;9.216;2024-03-23T09:09:28;13.32;;;2.95;;
32032;SDS011;31720;52.638;9.216;2024-03-23T09:12:31;20.05;;;3.33;;
32032;SDS011;31720;52.638;9.216;2024-03-23T09:15:32;10.45;;;2.33;;
32032;SDS011;31720;52.638;9.216;2024-03-23T09:18:35;14.45;;;2.80;;
32032;SDS011;31720;52.638;9.216;2024-03-23T09:21:38;20.20;;;2.50;;
32032;SDS011;31720;52.638;9.216;2024-03-23T09:24:38;5.70;;;2.33;;
32032;SDS011;31720;52.638;9.216;2024-03-23T09:27:41;15.00;;;2.83;;
32032;SDS011;31720;52.638;9.216;2024-03-23T09:30:41;13.93;;;2.47;;
32032;SDS011;31720;52.638;9.216;2024-03-23T09:33:43;8.60;;;2.38;;
32032;SDS011;31720;52.638;9.216;2024-03-23T09:36:43;8.70;;;2.60;;
32032;SDS011;31720;52.638;9.216;2024-03-23T09:39:45;10.32;;;2.30;;
32032;SDS011;31720;52.638;9.216;2024-03-23T09:42:50;16.23;;;2.63;;
32032;SDS011;31720;52.638;9.216;2024-03-23T09:45:52;12.85;;;2.13;;
32032;SDS011;31720;52.638;9.216;2024-03-23T09:48:54;18.63;;;2.40;;
32032;SDS011;31720;52.638;9.216;2024-03-23T09:51:55;15.27;;;2.05;;
32032;SDS011;31720;52.638;9.216;2024-03-23T09:54:57;11.32;;;2.63;;
32032;SDS011;31720;52.638;9.216;2024-03-23T09:57:59;11.57;;;2.50;;
32032;SDS011;31720;52.638;9.216;2024-03-23T10:01:01;6.97;;;1.88;;
32032;SDS011;31720;52.638;9.216;2024-03-23T10:04:03;12.60;;;1.30;;
32032;SDS011;31720;52.638;9.216;2024-03-23T10:07:10;2.75;;;1.15;;
32032;SDS011;31720;52.638;9.216;2024-03-23T10:10:12;5.93;;;1.33;;
32032;SDS011;31720;52.638;9.216;2024-03-23T10:13:24;11.20;;;1.10;;
32032;SDS011;31720;52.638;9.216;2024-03-23T10:16:26;3.25;;;1.30;;
32032;SDS011;31720;52.638;9.216;2024-03-23T10:19:30;5.72;;;1.70;;
32032;SDS011;31720;52.638;9.216;2024-03-23T10:22:34;5.43;;;1.50;;
32032;SDS011;31720;52.638;9.216;2024-03-23T10:25:37;4.07;;;1.25;;
32032;SDS011;31720;52.638;9.216;2024-03-23T10:28:44;14.32;;;1.70;;
32032;SDS011;31720;52.638;9.216;2024-03-23T10:31:53;5.97;;;1.50;;
32032;SDS011;31720;52.638;9.216;2024-03-23T10:35:14;8.50;;;1.27;;
32032;SDS011;31720;52.638;9.216;2024-03-23T10:38:16;7.40;;;1.80;;
32032;SDS011;31720;52.638;9.216;2024-03-23T10:41:17;6.50;;;1.98;;
32032;SDS011;31720;52.638;9.216;2024-03-23T10:44:19;6.63;;;2.38;;
32032;SDS011;31720;52.638;9.216;2024-03-23T10:47:23;8.23;;;1.92;;
32032;SDS011;31720;52.638;9.216;2024-03-23T10:50:24;13.65;;;2.95;;
32032;SDS011;31720;52.638;9.216;2024-03-23T10:53:26;3.10;;;2.20;;
32032;SDS011;31720;52.638;9.216;2024-03-23T10:56:28;5.13;;;2.80;;
32032;SDS011;31720;52.638;9.216;2024-03-23T10:59:35;22.23;;;3.35;;
32032;SDS011;31720;52.638;9.216;2024-03-23T11:02:37;2.83;;;0.82;;
32032;SDS011;31720;52.638;9.216;2024-03-23T11:05:39;3.20;;;0.50;;
32032;SDS011;31720;52.638;9.216;2024-03-23T11:08:40;3.70;;;0.80;;
32032;SDS011;31720;52.638;9.216;2024-03-23T11:11:42;0.85;;;0.65;;
32032;SDS011;31720;52.638;9.216;2024-03-23T11:14:44;0.73;;;0.68;;
32032;SDS011;31720;52.638;9.216;2024-03-23T11:21:07;5.40;;;0.93;;
32032;SDS011;31720;52.638;9.216;2024-03-23T11:24:17;2.85;;;0.75;;
32032;SDS011;31720;52.638;9.216;2024-03-23T11:27:19;1.65;;;0.63;;
32032;SDS011;31720;52.638;9.216;2024-03-23T11:30:22;1.20;;;0.70;;
32032;SDS011;31720;52.638;9.216;2024-03-23T11:33:24;0.63;;;0.50;;
32032;SDS011;31720;52.638;9.216;2024-03-23T11:36:24;0.68;;;0.45;;
32032;SDS011;31720;52.638;9.216;2024-03-23T11:39:26;0.57;;;0.43;;
32032;SDS011;31720;52.638;9.216;2024-03-23T11:42:26;1.40;;;0.70;;
32032;SDS011;31720;52.638;9.216;2024-03-23T11:45:31;0.30;;;0.30;;
32032;SDS011;31720;52.638;9.216;2024-03-23T11:48:35;0.55;;;0.55;;
32032;SDS011;31720;52.638;9.216;2024-03-23T11:51:36;0.52;;;0.43;;
32032;SDS011;31720;52.638;9.216;2024-03-23T11:54:37;2.20;;;0.50;;
32032;SDS011;31720;52.638;9.216;2024-03-23T11:57:38;8.82;;;0.68;;
32032;SDS011;31720;52.638;9.216;2024-03-23T12:00:40;4.07;;;0.52;;
32032;SDS011;31720;52.638;9.216;2024-03-23T12:03:43;3.63;;;0.80;;
32032;SDS011;31720;52.638;9.216;2024-03-23T12:06:44;3.08;;;1.40;;
32032;SDS011;31720;52.638;9.216;2024-03-23T12:09:46;10.13;;;1.02;;
32032;SDS011;31720;52.638;9.216;2024-03-23T12:12:57;2.25;;;0.60;;
32032;SDS011;31720;52.638;9.216;2024-03-23T12:16:10;4.43;;;0.88;;
32032;SDS011;31720;52.638;9.216;2024-03-23T12:19:12;2.67;;;0.98;;
32032;SDS011;31720;52.638;9.216;2024-03-23T12:22:12;2.65;;;1.10;;
32032;SDS011;31720;52.638;9.216;2024-03-23T12:25:14;5.97;;;0.90;;
32032;SDS011;31720;52.638;9.216;2024-03-23T12:28:14;2.33;;;1.20;;
32032;SDS011;31720;52.638;9.216;2024-03-23T12:31:18;2.85;;;1.05;;
32032;SDS011;31720;52.638;9.216;2024-03-23T12:34:18;3.78;;;0.95;;
32032;SDS011;31720;52.638;9.216;2024-03-23T12:37:20;4.38;;;1.10;;
32032;SDS011;31720;52.638;9.216;2024-03-23T12:40:21;1.63;;;0.77;;
32032;SDS011;31720;52.638;9.216;2024-03-23T12:43:21;2.88;;;1.33;;
32032;SDS011;31720;52.638;9.216;2024-03-23T12:46:24;4.43;;;0.90;;
32032;SDS011;31720;52.638;9.216;2024-03-23T12:49:24;3.70;;;1.00;;
32032;SDS011;31720;52.638;9.216;2024-03-23T12:52:26;3.33;;;0.90;;
32032;SDS011;31720;52.638;9.216;2024-03-23T12:55:28;3.00;;;0.98;;
32032;SDS011;31720;52.638;9.216;2024-03-23T12:58:29;2.20;;;0.90;;
32032;SDS011;31720;52.638;9.216;2024-03-23T13:01:31;4.35;;;0.90;;
32032;SDS011;31720;52.638;9.216;2024-03-23T13:04:33;2.85;;;1.15;;
32032;SDS011;31720;52.638;9.216;2024-03-23T13:07:33;2.90;;;0.95;;
32032;SDS011;31720;52.638;9.216;2024-03-23T13:10:35;4.22;;;1.08;;
32032;SDS011;31720;52.638;9.216;2024-03-23T13:13:36;7.07;;;1.70;;
32032;SDS011;31720;52.638;9.216;2024-03-23T13:16:38;4.10;;;1.15;;
32032;SDS011;31720;52.638;9.216;2024-03-23T13:19:39;2.47;;;1.33;;
32032;SDS011;31720;52.638;9.216;2024-03-23T13:22:41;8.50;;;0.98;;
32032;SDS011;31720;52.638;9.216;2024-03-23T13:25:45;2.88;;;0.85;;
32032;SDS011;31720;52.638;9.216;2024-03-23T13:28:51;3.00;;;1.00;;
32032;SDS011;31720;52.638;9.216;2024-03-23T13:31:53;6.03;;;0.95;;
32032;SDS011;31720;52.638;9.216;2024-03-23T13:34:54;7.82;;;1.25;;
32032;SDS011;31720;52.638;9.216;2024-03-23T13:37:55;2.15;;;1.13;;
32032;SDS011;31720;52.638;9.216;2024-03-23T13:40:56;2.83;;;0.85;;
32032;SDS011;31720;52.638;9.216;2024-03-23T13:43:58;4.65;;;1.30;;
32032;SDS011;31720;52.638;9.216;2024-03-23T13:47:00;3.75;;;1.30;;
32032;SDS011;31720;52.638;9.216;2024-03-23T13:50:02;6.53;;;1.20;;
32032;SDS011;31720;52.638;9.216;2024-03-23T13:53:02;3.35;;;1.10;;
32032;SDS011;31720;52.638;9.216;2024-03-23T13:56:04;2.10;;;0.77;;
32032;SDS011;31720;52.638;9.216;2024-03-23T13:59:04;2.42;;;0.60;;
32032;SDS011;31720;52.638;9.216;2024-03-23T14:02:08;4.43;;;0.75;;
32032;SDS011;31720;52.638;9.216;2024-03-23T14:05:09;4.22;;;0.88;;
32032;SDS011;31720;52.638;9.216;2024-03-23T14:08:11;3.30;;;0.90;;
32032;SDS011;31720;52.638;9.216;2024-03-23T14:11:12;4.47;;;1.00;;
32032;SDS011;31720;52.638;9.216;2024-03-23T14:14:14;3.75;;;0.90;;
32032;SDS011;31720;52.638;9.216;2024-03-23T14:17:18;3.35;;;1.00;;
32032;SDS011;31720;52.638;9.216;2024-03-23T14:20:19;4.28;;;1.52;;
32032;SDS011;31720;52.638;9.216;2024-03-23T14:23:20;2.00;;;0.75;;
32032;SDS011;31720;52.638;9.216;2024-03-23T14:26:22;3.33;;;0.95;;
32032;SDS011;31720;52.638;9.216;2024-03-23T14:29:24;3.45;;;0.50;;
32032;SDS011;31720;52.638;9.216;2024-03-23T14:32:26;6.97;;;0.75;;
32032;SDS011;31720;52.638;9.216;2024-03-23T14:35:29;4.68;;;0.77;;
32032;SDS011;31720;52.638;9.216;2024-03-23T14:38:29;4.25;;;0.93;;
32032;SDS011;31720;52.638;9.216;2024-03-23T14:41:31;0.73;;;0.38;;
32032;SDS011;31720;52.638;9.216;2024-03-23T14:44:32;2.65;;;0.60;;
32032;SDS011;31720;52.638;9.216;2024-03-23T14:47:34;4.00;;;0.65;;
32032;SDS011;31720;52.638;9.216;2024-03-23T14:50:36;4.68;;;0.35;;
32032;SDS011;31720;52.638;9.216;2024-03-23T14:53:37;1.88;;;0.38;;
32032;SDS011;31720;52.638;9.216;2024-03-23T14:56:40;0.40;;;0.40;;
32032;SDS011;31720;52.638;9.216;2024-03-23T14:59:40;1.27;;;0.63;;
32032;SDS011;31720;52.638;9.216;2024-03-23T15:02:43;4.22;;;1.90;;
32032;SDS011;31720;52.638;9.216;2024-03-23T15:05:52;3.97;;;0.57;;
32032;SDS011;31720;52.638;9.216;2024-03-23T15:08:53;2.25;;;0.85;;
32032;SDS011;31720;52.638;9.216;2024-03-23T15:11:55;1.60;;;0.70;;
32032;SDS011;31720;52.638;9.216;2024-03-23T15:14:56;0.93;;;0.30;;
32032;SDS011;31720;52.638;9.216;2024-03-23T15:17:58;2.03;;;0.65;;
32032;SDS011;31720;52.638;9.216;2024-03-23T15:20:59;1.27;;;0.80;;
32032;SDS011;31720;52.638;9.216;2024-03-23T15:24:02;0.52;;;0.52;;
32032;SDS011;31720;52.638;9.216;2024-03-23T15:27:04;0.75;;;0.35;;
32032;SDS011;31720;52.638;9.216;2024-03-23T15:30:05;4.10;;;0.45;;
32032;SDS011;31720;52.638;9.216;2024-03-23T15:33:09;2.85;;;0.60;;
32032;SDS011;31720;52.638;9.216;2024-03-23T15:36:09;1.38;;;0.40;;
32032;SDS011;31720;52.638;9.216;2024-03-23T15:39:10;2.13;;;0.40;;
32032;SDS011;31720;52.638;9.216;2024-03-23T15:42:13;1.55;;;0.40;;
32032;SDS011;31720;52.638;9.216;2024-03-23T15:45:14;0.40;;;0.30;;
32032;SDS011;31720;52.638;9.216;2024-03-23T15:48:16;4.47;;;0.57;;
32032;SDS011;31720;52.638;9.216;2024-03-23T15:51:18;2.10;;;0.55;;
32032;SDS011;31720;52.638;9.216;2024-03-23T15:54:18;5.25;;;0.73;;
32032;SDS011;31720;52.638;9.216;2024-03-23T15:57:21;2.80;;;0.98;;
32032;SDS011;31720;52.638;9.216;2024-03-23T16:00:22;1.05;;;0.60;;
32032;SDS011;31720;52.638;9.216;2024-03-23T16:03:24;2.60;;;0.90;;
32032;SDS011;31720;52.638;9.216;2024-03-23T16:06:26;0.60;;;0.60;;
32032;SDS011;31720;52.638;9.216;2024-03-23T16:09:28;1.05;;;0.60;;
32032;SDS011;31720;52.638;9.216;2024-03-23T16:12:29;0.40;;;0.40;;
32032;SDS011;31720;52.638;9.216;2024-03-23T16:15:30;2.97;;;0.77;;
32032;SDS011;31720;52.638;9.216;2024-03-23T16:18:33;1.23;;;0.80;;
32032;SDS011;31720;52.638;9.216;2024-03-23T16:21:36;1.17;;;0.82;;
32032;SDS011;31720;52.638;9.216;2024-03-23T16:24:36;2.75;;;1.10;;
32032;SDS011;31720;52.638;9.216;2024-03-23T16:27:37;2.90;;;1.30;;
32032;SDS011;31720;52.638;9.216;2024-03-23T16:30:38;4.88;;;0.95;;
32032;SDS011;31720;52.638;9.216;2024-03-23T16:33:40;5.15;;;1.02;;
32032;SDS011;31720;52.638;9.216;2024-03-23T16:36:42;4.28;;;0.80;;
32032;SDS011;31720;52.638;9.216;2024-03-23T16:39:43;4.57;;;0.70;;
32032;SDS011;31720;52.638;9.216;2024-03-23T16:42:44;5.75;;;1.35;;
32032;SDS011;31720;52.638;9.216;2024-03-23T16:45:50;1.85;;;0.65;;
32032;SDS011;31720;52.638;9.216;2024-03-23T16:48:55;3.47;;;1.00;;
32032;SDS011;31720;52.638;9.216;2024-03-23T16:51:57;6.07;;;0.90;;
32032;SDS011;31720;52.638;9.216;2024-03-23T16:54:58;2.55;;;1.35;;
32032;SDS011;31720;52.638;9.216;2024-03-23T16:57:58;4.68;;;1.02;;
32032;SDS011;31720;52.638;9.216;2024-03-23T17:01:02;1.58;;;0.88;;
32032;SDS011;31720;52.638;9.216;2024-03-23T17:04:05;6.70;;;1.20;;
32032;SDS011;31720;52.638;9.216;2024-03-23T17:07:05;4.25;;;1.17;;
32032;SDS011;31720;52.638;9.216;2024-03-23T17:10:07;5.00;;;0.95;;
32032;SDS011;31720;52.638;9.216;2024-03-23T17:13:08;5.43;;;1.35;;
32032;SDS011;31720;52.638;9.216;2024-03-23T17:16:09;3.00;;;0.90;;
32032;SDS011;31720;52.638;9.216;2024-03-23T17:19:12;2.72;;;0.95;;
32032;SDS011;31720;52.638;9.216;2024-03-23T17:22:13;1.75;;;0.60;;
32032;SDS011;31720;52.638;9.216;2024-03-23T17:25:14;3.13;;;0.75;;
32032;SDS011;31720;52.638;9.216;2024-03-23T17:28:15;0.85;;;0.50;;
32032;SDS011;31720;52.638;9.216;2024-03-23T17:31:16;4.72;;;0.50;;
32032;SDS011;31720;52.638;9.216;2024-03-23T17:34:19;5.82;;;0.70;;
32032;SDS011;31720;52.638;9.216;2024-03-23T17:37:19;1.42;;;0.40;;
32032;SDS011;31720;52.638;9.216;2024-03-23T17:40:22;1.55;;;0.50;;
32032;SDS011;31720;52.638;9.216;2024-03-23T17:43:22;0.60;;;0.40;;
32032;SDS011;31720;52.638;9.216;2024-03-23T17:46:24;0.93;;;0.52;;
32032;SDS011;31720;52.638;9.216;2024-03-23T17:49:26;1.30;;;0.60;;
32032;SDS011;31720;52.638;9.216;2024-03-23T17:52:27;1.38;;;0.40;;
32032;SDS011;31720;52.638;9.216;2024-03-23T17:55:27;2.25;;;0.70;;
32032;SDS011;31720;52.638;9.216;2024-03-23T17:58:29;2.05;;;0.60;;
32032;SDS011;31720;52.638;9.216;2024-03-23T18:01:29;2.97;;;0.90;;
32032;SDS011;31720;52.638;9.216;2024-03-23T18:04:32;3.38;;;0.98;;
32032;SDS011;31720;52.638;9.216;2024-03-23T18:07:32;1.73;;;0.63;;
32032;SDS011;31720;52.638;9.216;2024-03-23T18:10:34;5.15;;;1.20;;
32032;SDS011;31720;52.638;9.216;2024-03-23T18:13:36;2.67;;;1.10;;
32032;SDS011;31720;52.638;9.216;2024-03-23T18:16:36;5.05;;;0.80;;
32032;SDS011;31720;52.638;9.216;2024-03-23T18:19:39;2.70;;;0.82;;
32032;SDS011;31720;52.638;9.216;2024-03-23T18:22:40;2.83;;;1.02;;
32032;SDS011;31720;52.638;9.216;2024-03-23T18:25:41;9.90;;;2.20;;
32032;SDS011;31720;52.638;9.216;2024-03-23T18:28:42;3.65;;;1.35;;
32032;SDS011;31720;52.638;9.216;2024-03-23T18:31:50;4.40;;;1.15;;
32032;SDS011;31720;52.638;9.216;2024-03-23T18:34:53;3.92;;;1.02;;
32032;SDS011;31720;52.638;9.216;2024-03-23T18:37:53;5.72;;;1.90;;
32032;SDS011;31720;52.638;9.216;2024-03-23T18:40:55;1.83;;;1.13;;
32032;SDS011;31720;52.638;9.216;2024-03-23T18:43:56;3.25;;;1.10;;
32032;SDS011;31720;52.638;9.216;2024-03-23T18:46:58;1.40;;;0.93;;
32032;SDS011;31720;52.638;9.216;2024-03-23T18:50:00;2.22;;;1.10;;
32032;SDS011;31720;52.638;9.216;2024-03-23T18:53:01;2.83;;;1.17;;
32032;SDS011;31720;52.638;9.216;2024-03-23T18:56:02;5.57;;;1.15;;
32032;SDS011;31720;52.638;9.216;2024-03-23T18:59:03;5.78;;;1.20;;
32032;SDS011;31720;52.638;9.216;2024-03-23T19:02:04;7.45;;;1.70;;
32032;SDS011;31720;52.638;9.216;2024-03-23T19:05:07;8.80;;;2.42;;